Decoded Metar for VOML (MANGALORE in INDIA) (IATA:IXE) | Meteo·Mobile Aviation Weather
aviador You're here:

VOML Decoded Metar

MANGALORE in INDIA
Report Time2018-11-16 18:00:00
UTC Time2018-11-16 18:07:32
Flight Rules mvfr MVFR
Wind050° at 03 kt
W.Decomp.*RWY 06: 3.0 kt HW 0.5 kt LCW
RWY 09: 2.3 kt HW 1.9 kt LCW
W.Rank050° ranks 16
Current wind is below 050° avg. (4.1)
Visibility6000 m
Phenomena:N/A
Clouds:Few 015 Hf
Expected CloudBase > 1,600 ft AGL from Temp-Dew spread
CeilingNone
Temp28°C (ISA +14)
Dew Point24°C (79% RH)
Heat Index31.9°C
QNH1009 hPa
Density Alt2,438 ft
Elevation338 ft
Report Wrong Elevation
Raw Report
METAR VOML 161800Z 05003KT 6000 FEW015 28/24 Q1009 NOSIG=

Extra information for VOML:More info

Metar Taf Metar & Taf Last 4 Metars F.Rules Stats Wind Profile Meteogram Temp Stats Airport Information Weather charts Add Link Nearby VenuesMetar ALERT Operation Metar Decoded Social comments